Time;durP1;ratioP1;P1;durP2;ratioP2;P2;SDS_P1;SDS_P2;PMS_P1;PMS_P2;Temp;Humidity;BMP_temperature;BMP_pressure;BME280_temperature;BME280_humidity;BME280_pressure;Samples;Min_cycle;Max_cycle;Signal;HPM_P1;HPM_P2
2022/11/09 00:00:05;;;;;;;33.88;20.85;;;;;;;6.96;87.35;100352.27;1750994;81;25512;-53
2022/11/09 00:02:33;;;;;;;33.78;21.12;;;;;;;6.98;87.03;100354.12;1751157;81;25480;-53
2022/11/09 00:04:59;;;;;;;37.13;21.90;;;;;;;6.96;86.82;100359.79;1751014;81;27559;-54
2022/11/09 00:07:30;;;;;;;35.40;20.90;;;;;;;6.95;86.93;100364.11;1750623;82;25416;-53
2022/11/09 00:13:56;;;;;;;36.05;21.37;;;;;;;6.91;86.86;100359.84;1750960;82;25615;-51
2022/11/09 00:16:22;;;;;;;38.53;21.95;;;;;;;6.85;86.92;100356.95;1751063;82;25417;-51
2022/11/09 00:18:52;;;;;;;38.55;23.02;;;;;;;6.82;86.82;100358.85;1751103;82;27404;-54
2022/11/09 00:21:23;;;;;;;34.25;21.42;;;;;;;6.78;86.91;100354.58;1750569;82;25814;-54
2022/11/09 00:23:50;;;;;;;39.73;23.75;;;;;;;6.75;87.12;100348.42;1750534;82;25540;-52
2022/11/09 00:26:20;;;;;;;39.35;23.12;;;;;;;6.73;87.65;100344.66;1750506;82;25455;-54
2022/11/09 00:28:50;;;;;;;43.78;23.98;;;;;;;6.70;87.44;100347.91;1750740;82;25576;-52
2022/11/09 00:31:21;;;;;;;38.35;23.92;;;;;;;6.69;87.41;100342.81;1750580;81;27458;-52
2022/11/09 00:33:51;;;;;;;37.60;22.27;;;;;;;6.67;87.50;100352.50;1750491;81;25972;-53
2022/11/09 00:36:20;;;;;;;40.48;22.32;;;;;;;6.64;87.57;100346.89;1750523;82;25633;-52
2022/11/09 00:38:51;;;;;;;32.93;22.40;;;;;;;6.60;87.75;100341.83;1747113;81;25470;-54
2022/11/09 00:41:20;;;;;;;39.42;23.45;;;;;;;6.57;87.58;100343.17;1744997;82;25143;-52
2022/11/09 00:43:48;;;;;;;42.60;22.50;;;;;;;6.56;87.86;100339.45;1745075;82;28023;-53
2022/11/09 00:46:16;;;;;;;38.83;23.15;;;;;;;6.54;87.83;100335.70;1744202;82;25396;-51
2022/11/09 00:48:45;;;;;;;36.75;21.57;;;;;;;6.53;87.82;100336.22;1743489;82;25912;-53
2022/11/09 00:51:13;;;;;;;36.85;22.02;;;;;;;6.51;87.95;100333.56;1743415;81;25770;-55
2022/11/09 00:53:41;;;;;;;39.83;22.10;;;;;;;6.50;87.83;100335.98;1744209;82;25706;-54
2022/11/09 00:56:12;;;;;;;35.38;21.48;;;;;;;6.48;87.98;100333.57;1743491;81;28527;-52
2022/11/09 00:58:39;;;;;;;41.75;24.63;;;;;;;6.47;88.35;100336.53;1744607;82;25710;-52
2022/11/09 01:01:14;;;;;;;36.40;23.20;;;;;;;6.47;88.53;100337.36;1745018;82;25386;-52
2022/11/09 01:03:43;;;;;;;38.55;22.73;;;;;;;6.45;88.41;100330.12;1745015;81;25412;-55
2022/11/09 01:06:16;;;;;;;39.40;22.70;;;;;;;6.44;88.65;100333.88;1745107;81;30533;-53
2022/11/09 01:08:43;;;;;;;40.55;23.00;;;;;;;6.44;88.52;100329.05;1744676;82;27637;-52
2022/11/09 01:11:21;;;;;;;39.15;23.22;;;;;;;6.45;88.39;100334.67;1745044;82;25919;-55
2022/11/09 01:13:51;;;;;;;39.85;23.40;;;;;;;6.44;88.79;100329.05;1673742;85;25742;-55
2022/11/09 01:16:21;;;;;;;41.02;22.85;;;;;;;6.42;88.68;100336.57;1673788;85;25934;-52
2022/11/09 01:18:53;;;;;;;38.50;22.15;;;;;;;6.41;88.51;100330.95;1673956;85;25462;-53
2022/11/09 01:21:19;;;;;;;34.53;22.20;;;;;;;6.41;88.90;100329.61;1673748;85;27494;-52
2022/11/09 01:23:47;;;;;;;41.83;23.12;;;;;;;6.40;89.02;100326.65;1673647;85;25746;-53
2022/11/09 01:26:15;;;;;;;40.03;22.10;;;;;;;6.39;89.00;100331.23;1673610;85;25594;-51
2022/11/09 01:31:19;;;;;;;39.58;23.83;;;;;;;6.39;89.10;100327.20;1728712;81;25634;-50
2022/11/09 01:33:47;;;;;;;46.85;24.27;;;;;;;6.38;89.32;100318.87;1721422;83;28058;-50
2022/11/09 01:36:17;;;;;;;38.88;23.15;;;;;;;6.40;89.26;100326.65;1721140;83;25574;-51
2022/11/09 01:38:46;;;;;;;41.00;25.10;;;;;;;6.41;89.38;100329.06;1709133;83;25447;-53
2022/11/09 01:41:23;;;;;;;46.23;24.85;;;;;;;6.41;89.56;100325.58;1702480;84;25417;-54
2022/11/09 01:44:10;;;;;;;40.58;24.12;;;;;;;6.42;89.67;100324.48;1717332;83;25457;-50
2022/11/09 01:46:44;;;;;;;41.80;23.47;;;;;;;6.43;89.88;100322.86;1717313;83;27553;-51
2022/11/09 01:49:31;;;;;;;40.23;24.82;;;;;;;6.45;90.01;100322.06;1716754;83;25483;-52
2022/11/09 01:52:11;;;;;;;43.50;23.40;;;;;;;6.44;90.04;100315.07;1716566;83;25480;-51
2022/11/09 01:54:43;;;;;;;49.38;24.40;;;;;;;6.47;90.20;100315.03;1717258;83;25465;-52
2022/11/09 01:57:15;;;;;;;42.58;23.87;;;;;;;6.48;90.34;100311.28;1717318;83;25415;-52
2022/11/09 01:59:46;;;;;;;40.83;23.67;;;;;;;6.49;90.12;100314.23;1701779;84;27695;-53
2022/11/09 02:02:13;;;;;;;42.55;25.17;;;;;;;6.49;90.35;100302.94;1716503;83;25719;-54
2022/11/09 02:04:44;;;;;;;45.00;24.92;;;;;;;6.52;90.60;100313.12;1716473;83;25657;-53
2022/11/09 02:07:10;;;;;;;40.50;24.35;;;;;;;6.52;90.52;100299.70;1716464;83;25541;-52
2022/11/09 02:10:00;;;;;;;43.10;24.27;;;;;;;6.54;90.41;100294.84;1716490;83;25499;-52
2022/11/09 02:12:30;;;;;;;46.30;25.10;;;;;;;6.56;90.39;100304.52;1717030;83;27612;-52
2022/11/09 02:14:58;;;;;;;47.13;25.00;;;;;;;6.58;90.36;100295.63;1693218;83;25555;-55
2022/11/09 02:17:25;;;;;;;41.15;23.60;;;;;;;6.58;90.27;100296.41;1717239;83;25432;-54
2022/11/09 02:19:51;;;;;;;42.05;25.10;;;;;;;6.59;90.53;100299.38;1717209;83;25423;-55
2022/11/09 02:22:18;;;;;;;47.27;26.30;;;;;;;6.61;90.39;100297.20;1717280;83;25416;-53
2022/11/09 02:24:44;;;;;;;44.50;25.20;;;;;;;6.61;90.38;100302.58;1717247;83;27554;-53
2022/11/09 02:27:10;;;;;;;42.08;24.47;;;;;;;6.62;90.47;100293.41;1717187;83;25481;-53
2022/11/09 02:29:40;;;;;;;46.92;25.77;;;;;;;6.65;90.47;100291.51;1717224;83;25583;-52
2022/11/09 02:32:17;;;;;;;44.42;25.37;;;;;;;6.66;90.54;100290.44;1714362;83;25791;-52
2022/11/09 02:34:43;;;;;;;41.77;25.02;;;;;;;6.68;90.85;100288.26;1712367;83;25416;-51
2022/11/09 02:37:10;;;;;;;44.85;26.12;;;;;;;6.69;90.40;100281.81;1714400;83;27506;-51
2022/11/09 02:39:37;;;;;;;45.28;26.02;;;;;;;6.70;90.50;100286.09;1714344;83;25719;-52
2022/11/09 02:42:13;;;;;;;48.55;26.68;;;;;;;6.70;90.23;100280.70;1714399;83;25424;-51
2022/11/09 02:44:44;;;;;;;45.80;26.50;;;;;;;6.72;90.32;100279.91;1714434;83;25406;-52
2022/11/09 02:47:11;;;;;;;50.25;26.97;;;;;;;6.73;90.28;100283.39;1714452;83;25415;-53
2022/11/09 02:49:37;;;;;;;48.10;26.95;;;;;;;6.74;90.29;100280.94;1714391;83;27492;-51
2022/11/09 02:52:04;;;;;;;45.35;25.10;;;;;;;6.74;90.20;100282.28;1714350;83;25451;-51
2022/11/09 02:54:30;;;;;;;46.25;26.68;;;;;;;6.75;90.23;100282.55;1714454;83;25462;-52
2022/11/09 02:56:56;;;;;;;44.75;26.77;;;;;;;6.75;90.54;100283.11;1714379;83;25488;-56
2022/11/09 02:59:22;;;;;;;48.02;26.65;;;;;;;6.76;90.16;100284.69;1714416;83;25479;-52
2022/11/09 03:01:48;;;;;;;48.33;27.05;;;;;;;6.77;90.08;100288.45;1714441;83;27498;-51
2022/11/09 03:04:14;;;;;;;42.03;25.80;;;;;;;6.76;89.88;100282.01;1714286;83;25465;-52
2022/11/09 03:06:41;;;;;;;47.27;27.22;;;;;;;6.75;90.02;100287.94;1714396;83;25465;-51
2022/11/09 03:09:10;;;;;;;45.23;25.85;;;;;;;6.75;90.00;100289.28;1714337;83;25481;-52
2022/11/09 03:11:38;;;;;;;44.85;26.48;;;;;;;6.75;90.00;100285.80;1714558;83;25489;-52
2022/11/09 03:14:05;;;;;;;47.25;27.32;;;;;;;6.73;90.18;100286.87;1714411;83;28183;-52
2022/11/09 03:16:32;;;;;;;51.42;25.77;;;;;;;6.70;89.99;100286.09;1714339;83;26061;-55
2022/11/09 03:18:59;;;;;;;44.15;26.00;;;;;;;6.72;89.98;100288.49;1714398;83;25433;-52
2022/11/09 03:21:25;;;;;;;47.90;26.75;;;;;;;6.69;89.81;100291.22;1714371;83;25496;-52
2022/11/09 03:23:51;;;;;;;47.83;26.70;;;;;;;6.70;89.93;100292.02;1714397;83;25483;-52
2022/11/09 03:26:17;;;;;;;46.98;25.55;;;;;;;6.71;90.08;100295.77;1714401;83;27479;-51
2022/11/09 03:28:43;;;;;;;44.70;26.50;;;;;;;6.70;90.01;100291.46;1714327;83;25429;-51
2022/11/09 03:31:10;;;;;;;47.80;27.62;;;;;;;6.70;89.94;100292.02;1715574;83;25525;-52
2022/11/09 03:33:36;;;;;;;47.62;26.07;;;;;;;6.69;89.97;100285.02;1717146;83;25536;-53
2022/11/09 03:36:03;;;;;;;44.30;25.10;;;;;;;6.68;90.15;100292.29;1717219;83;25395;-51
2022/11/09 03:38:29;;;;;;;46.92;26.52;;;;;;;6.68;90.10;100293.64;1717196;83;27472;-52
2022/11/09 03:40:57;;;;;;;46.20;25.65;;;;;;;6.69;90.09;100283.16;1717134;83;25905;-53
2022/11/09 03:43:23;;;;;;;43.00;26.25;;;;;;;6.69;90.13;100287.70;1717178;83;25430;-52
2022/11/09 03:45:49;;;;;;;45.17;26.65;;;;;;;6.70;89.99;100291.46;1717169;83;25484;-51
2022/11/09 03:48:16;;;;;;;42.33;24.82;;;;;;;6.70;90.04;100286.09;1717243;83;25400;-51
2022/11/09 03:50:43;;;;;;;47.67;26.27;;;;;;;6.70;90.18;100286.64;1676367;84;27467;-52
2022/11/09 03:53:10;;;;;;;48.58;26.62;;;;;;;6.69;90.07;100285.84;1717113;83;25751;-51
2022/11/09 03:55:37;;;;;;;45.65;25.95;;;;;;;6.69;90.35;100288.53;1717253;83;25399;-52
2022/11/09 03:58:06;;;;;;;49.95;27.20;;;;;;;6.68;90.19;100285.57;1717277;83;25487;-53
2022/11/09 04:00:33;;;;;;;46.50;26.17;;;;;;;6.69;90.40;100284.50;1717639;83;25472;-52
2022/11/09 04:02:59;;;;;;;49.65;27.30;;;;;;;6.69;90.51;100286.36;1717319;83;27268;-52
2022/11/09 04:05:25;;;;;;;46.50;26.10;;;;;;;6.66;90.33;100278.34;1702503;84;25406;-51
2022/11/09 04:07:55;;;;;;;48.83;26.12;;;;;;;6.68;90.26;100281.54;1717324;83;25479;-52
2022/11/09 04:10:23;;;;;;;42.88;26.35;;;;;;;6.68;90.25;100287.47;1717272;83;25488;-53
2022/11/09 04:12:50;;;;;;;48.70;25.52;;;;;;;6.67;90.28;100275.89;1717332;83;25569;-51
2022/11/09 04:15:17;;;;;;;46.08;26.60;;;;;;;6.66;90.41;100274.30;1717310;83;27976;-52
2022/11/09 04:17:43;;;;;;;43.25;25.97;;;;;;;6.66;90.26;100277.55;1717249;83;25683;-53
2022/11/09 04:20:10;;;;;;;49.38;27.05;;;;;;;6.65;90.20;100272.69;1717308;83;25463;-52
2022/11/09 04:22:37;;;;;;;51.68;27.62;;;;;;;6.66;90.23;100273.52;1717271;83;26049;-52
2022/11/09 04:25:04;;;;;;;47.08;27.02;;;;;;;6.64;90.15;100266.25;1717354;83;25452;-52
2022/11/09 04:27:30;;;;;;;47.62;27.17;;;;;;;6.64;90.09;100270.28;1717309;83;27486;-51
2022/11/09 04:29:57;;;;;;;50.12;26.75;;;;;;;6.62;90.05;100263.84;1717174;83;32732;-54
2022/11/09 04:32:23;;;;;;;50.70;26.80;;;;;;;6.62;89.96;100264.39;1714953;83;25677;-52
2022/11/09 04:34:49;;;;;;;48.17;26.35;;;;;;;6.61;90.10;100264.16;1714458;83;25554;-52
2022/11/09 04:37:15;;;;;;;53.38;27.27;;;;;;;6.59;90.03;100265.78;1714498;83;25456;-52
2022/11/09 04:39:42;;;;;;;51.35;26.68;;;;;;;6.58;90.25;100261.47;1714495;83;27472;-52
2022/11/09 04:42:08;;;;;;;47.17;25.90;;;;;;;6.58;90.43;100266.06;1714388;83;25460;-51
2022/11/09 04:44:34;;;;;;;48.30;25.97;;;;;;;6.57;90.23;100264.44;1714487;83;29981;-53
2022/11/09 04:47:00;;;;;;;49.67;27.48;;;;;;;6.54;90.16;100264.48;1714444;83;26018;-53
2022/11/09 04:49:26;;;;;;;49.85;27.35;;;;;;;6.53;90.03;100272.27;1714456;83;25451;-52
2022/11/09 04:51:52;;;;;;;51.55;27.02;;;;;;;6.51;89.99;100262.35;1714477;83;27518;-52
2022/11/09 04:54:18;;;;;;;47.45;26.52;;;;;;;6.49;90.13;100273.38;1714349;83;25670;-54
2022/11/09 04:56:44;;;;;;;49.48;27.02;;;;;;;6.47;89.99;100268.84;1714481;83;29555;-56
2022/11/09 04:59:10;;;;;;;46.18;26.02;;;;;;;6.45;89.94;100262.12;1714467;83;25455;-56
2022/11/09 05:01:37;;;;;;;45.23;27.20;;;;;;;6.42;90.18;100267.53;1714456;83;32381;-52
2022/11/09 05:04:03;;;;;;;48.33;28.00;;;;;;;6.40;90.09;100263.51;1714484;83;27471;-55
2022/11/09 05:06:32;;;;;;;44.08;26.62;;;;;;;6.39;90.09;100268.09;1714376;83;25692;-56
2022/11/09 05:09:03;;;;;;;48.15;27.02;;;;;;;6.35;90.11;100266.52;1714594;83;25474;-55
2022/11/09 05:11:30;;;;;;;49.93;28.67;;;;;;;6.33;90.22;100268.69;1713606;83;25463;-53
2022/11/09 05:13:56;;;;;;;49.23;27.58;;;;;;;6.32;90.13;100267.62;1714482;83;25456;-53
2022/11/09 05:16:23;;;;;;;50.05;27.90;;;;;;;6.31;90.14;100266.80;1688008;83;27444;-53
2022/11/09 05:18:50;;;;;;;49.45;29.30;;;;;;;6.30;90.23;100263.05;1714423;83;25404;-53
2022/11/09 05:21:16;;;;;;;49.93;29.55;;;;;;;6.28;90.32;100267.37;1714445;83;25516;-52
2022/11/09 05:23:58;;;;;;;50.95;29.60;;;;;;;6.27;90.23;100259.59;1714415;83;25459;-52
2022/11/09 05:26:27;;;;;;;51.83;28.92;;;;;;;6.25;90.25;100261.22;1714489;83;25452;-53
2022/11/09 05:28:54;;;;;;;53.33;28.87;;;;;;;6.24;90.34;100264.19;1714584;83;27485;-52
2022/11/09 05:31:21;;;;;;;51.02;29.00;;;;;;;6.25;90.55;100265.77;1714282;83;25680;-52
2022/11/09 05:33:51;;;;;;;52.62;28.50;;;;;;;6.22;90.47;100269.04;1714477;83;25440;-52
2022/11/09 05:36:18;;;;;;;53.38;28.65;;;;;;;6.23;90.50;100266.08;1714415;83;25650;-52
2022/11/09 05:38:45;;;;;;;55.60;30.65;;;;;;;6.22;90.58;100268.48;1714481;83;25467;-53
2022/11/09 05:41:12;;;;;;;53.02;29.25;;;;;;;6.22;90.71;100261.78;1714463;83;27481;-56
2022/11/09 05:43:38;;;;;;;53.02;30.15;;;;;;;6.21;90.71;100266.88;1714367;83;25703;-52
2022/11/09 05:46:05;;;;;;;55.75;30.48;;;;;;;6.21;90.86;100262.84;1714416;83;25489;-52
2022/11/09 05:48:31;;;;;;;57.93;30.90;;;;;;;6.21;90.91;100261.50;1714367;83;25550;-52
2022/11/09 05:51:03;;;;;;;53.73;31.57;;;;;;;6.21;90.96;100268.22;1714411;83;25502;-52
2022/11/09 05:53:30;;;;;;;55.10;30.08;;;;;;;6.21;90.85;100267.42;1714439;83;27505;-53
2022/11/09 05:56:02;;;;;;;55.08;30.32;;;;;;;6.23;90.86;100272.79;1714321;83;25427;-52
2022/11/09 05:58:29;;;;;;;49.30;28.47;;;;;;;6.23;90.96;100270.11;1714477;83;25478;-55
2022/11/09 06:00:55;;;;;;;52.80;30.10;;;;;;;6.23;90.95;100264.73;1714389;83;26055;-52
2022/11/09 06:03:21;;;;;;;53.08;29.25;;;;;;;6.24;91.18;100261.50;1714465;83;25468;-52
2022/11/09 06:05:47;;;;;;;55.25;28.92;;;;;;;6.24;91.12;100269.00;1714437;83;27486;-52
2022/11/09 06:08:15;;;;;;;55.05;30.32;;;;;;;6.26;91.28;100272.20;1714357;83;25470;-53
2022/11/09 06:10:42;;;;;;;54.18;29.80;;;;;;;6.28;91.23;100275.95;1714418;83;25434;-54
2022/11/09 06:13:08;;;;;;;51.08;26.97;;;;;;;6.30;91.29;100275.13;1714356;83;26172;-53
2022/11/09 06:15:34;;;;;;;50.65;28.17;;;;;;;6.32;91.60;100277.02;1714476;83;25423;-52
2022/11/09 06:18:01;;;;;;;52.00;29.72;;;;;;;6.33;91.30;100277.27;1714437;83;27579;-52
2022/11/09 06:20:28;;;;;;;57.98;28.95;;;;;;;6.36;91.32;100285.56;1714350;83;25623;-52
2022/11/09 06:22:59;;;;;;;51.23;27.65;;;;;;;6.37;91.25;100278.33;1714428;83;25460;-52
2022/11/09 06:25:27;;;;;;;55.88;28.87;;;;;;;6.39;91.41;100278.84;1714394;83;26293;-56
2022/11/09 06:27:54;;;;;;;52.53;28.07;;;;;;;6.41;91.47;100282.04;1714434;83;25497;-52
2022/11/09 06:30:21;;;;;;;57.17;28.75;;;;;;;6.44;91.47;100272.08;1714387;83;27476;-53
2022/11/09 06:32:47;;;;;;;46.70;26.85;;;;;;;6.48;91.51;100279.83;1714239;83;25432;-53
2022/11/09 06:35:14;;;;;;;47.67;27.32;;;;;;;6.51;91.39;100274.44;1714422;83;25484;-56
2022/11/09 06:37:40;;;;;;;50.23;27.22;;;;;;;6.56;91.44;100283.80;1714363;83;25533;-53
2022/11/09 06:40:08;;;;;;;49.95;28.05;;;;;;;6.60;91.38;100286.17;1714414;83;25452;-52
2022/11/09 06:42:34;;;;;;;55.67;28.87;;;;;;;6.65;91.49;100283.44;1714406;83;27621;-53
2022/11/09 06:45:01;;;;;;;53.33;27.80;;;;;;;6.69;91.30;100280.98;1714306;83;25552;-53
2022/11/09 06:47:27;;;;;;;51.28;26.95;;;;;;;6.72;91.22;100282.59;1714430;83;25402;-53
2022/11/09 06:49:54;;;;;;;51.77;27.95;;;;;;;6.77;91.22;100283.07;1714340;83;25984;-52
2022/11/09 06:52:20;;;;;;;51.25;25.88;;;;;;;6.81;91.04;100280.09;1714399;83;25496;-51
2022/11/09 06:54:46;;;;;;;50.43;27.70;;;;;;;6.86;91.06;100280.56;1714422;83;28115;-52
2022/11/09 06:57:12;;;;;;;52.00;27.35;;;;;;;6.89;91.00;100279.45;1714365;83;25414;-56
2022/11/09 06:59:38;;;;;;;51.13;27.93;;;;;;;6.92;90.98;100282.13;1714429;83;25426;-55
2022/11/09 07:02:04;;;;;;;50.58;27.13;;;;;;;6.97;90.87;100282.08;1714367;83;35104;-55
2022/11/09 07:04:30;;;;;;;51.68;27.17;;;;;;;7.01;90.84;100287.13;1714268;83;25504;-54
2022/11/09 07:06:57;;;;;;;51.30;26.80;;;;;;;7.06;90.79;100284.94;1714384;83;27541;-51
2022/11/09 07:09:23;;;;;;;51.98;25.30;;;;;;;7.11;91.05;100274.13;1714317;83;25464;-54
2022/11/09 07:11:49;;;;;;;47.93;26.05;;;;;;;7.25;90.97;100285.81;1714378;83;25437;-52
2022/11/09 07:14:16;;;;;;;46.68;24.85;;;;;;;7.37;90.71;100277.86;1714347;83;26241;-51
2022/11/09 07:16:42;;;;;;;45.25;26.05;;;;;;;7.43;90.39;100280.20;1714417;83;25477;-52
2022/11/09 07:19:08;;;;;;;44.95;24.98;;;;;;;7.52;90.36;100266.91;1714364;83;27465;-55
2022/11/09 07:21:34;;;;;;;44.40;25.40;;;;;;;7.61;90.15;100273.79;1713566;83;25524;-54
2022/11/09 07:24:00;;;;;;;45.28;25.43;;;;;;;7.69;89.78;100268.32;1714131;83;25520;-55
2022/11/09 07:26:27;;;;;;;43.05;25.10;;;;;;;7.79;89.88;100272.22;1714185;83;25571;-53
2022/11/09 07:28:53;;;;;;;48.52;25.62;;;;;;;7.87;89.54;100278.30;1714285;83;25507;-53
2022/11/09 07:31:19;;;;;;;46.15;25.85;;;;;;;7.93;89.17;100274.98;1714284;83;27562;-55
2022/11/09 07:33:45;;;;;;;49.40;25.70;;;;;;;7.99;88.93;100263.84;1714251;83;25705;-52
2022/11/09 07:36:11;;;;;;;41.02;24.12;;;;;;;8.07;88.98;100265.62;1714523;83;25406;-53
2022/11/09 07:38:37;;;;;;;41.18;24.12;;;;;;;8.12;88.41;100262.32;1714500;83;25489;-52
2022/11/09 07:41:04;;;;;;;50.58;25.85;;;;;;;8.17;88.16;100266.81;1714573;83;32413;-57
2022/11/09 07:43:30;;;;;;;46.15;25.10;;;;;;;8.22;88.26;100264.03;1714556;83;27471;-54
2022/11/09 07:45:56;;;;;;;47.53;25.72;;;;;;;8.29;88.05;100279.31;1714466;83;25419;-53
2022/11/09 07:48:23;;;;;;;45.12;24.50;;;;;;;8.36;87.63;100273.52;1714545;83;25424;-53
2022/11/09 07:50:49;;;;;;;40.12;24.18;;;;;;;8.43;87.41;100264.56;1714478;83;25468;-51
2022/11/09 07:53:16;;;;;;;46.70;25.05;;;;;;;8.51;87.01;100270.63;1714539;83;25406;-55
2022/11/09 07:55:43;;;;;;;46.83;24.72;;;;;;;8.57;87.18;100266.73;1714541;83;27531;-54
2022/11/09 07:58:14;;;;;;;42.15;24.25;;;;;;;8.69;87.06;100289.18;1714429;83;25416;-52
2022/11/09 08:00:42;;;;;;;46.53;24.65;;;;;;;8.74;86.20;100276.95;1714556;83;25426;-54
2022/11/09 08:03:09;;;;;;;43.48;24.37;;;;;;;8.79;85.84;100278.77;1714494;83;25556;-53
2022/11/09 08:05:36;;;;;;;41.55;25.10;;;;;;;8.83;86.10;100273.02;1714517;83;25441;-53
2022/11/09 08:08:06;;;;;;;50.43;25.57;;;;;;;8.88;85.58;100278.33;1714528;83;28160;-51
2022/11/09 08:10:34;;;;;;;40.67;24.65;;;;;;;8.87;85.31;100270.00;1714440;83;25443;-56
2022/11/09 08:13:04;;;;;;;41.98;24.60;;;;;;;8.91;85.49;100270.99;1714488;83;25454;-53
2022/11/09 08:15:31;;;;;;;39.60;22.93;;;;;;;8.95;85.37;100263.09;1714493;83;25506;-53
2022/11/09 08:18:04;;;;;;;43.98;24.20;;;;;;;9.01;85.39;100259.22;1688304;83;25459;-56
2022/11/09 08:20:31;;;;;;;43.38;24.52;;;;;;;9.08;85.22;100262.31;1714535;83;28034;-53
2022/11/09 08:22:58;;;;;;;45.28;23.75;;;;;;;9.15;85.00;100257.31;1688049;83;25526;-56
2022/11/09 08:25:24;;;;;;;41.83;22.90;;;;;;;9.29;85.73;100262.70;1714516;83;25481;-56
2022/11/09 08:27:51;;;;;;;41.33;23.40;;;;;;;9.46;84.77;100259.95;1714455;83;25465;-54
2022/11/09 08:30:20;;;;;;;40.43;24.07;;;;;;;9.58;84.54;100258.88;1714501;83;25423;-55
2022/11/09 08:32:47;;;;;;;40.38;24.30;;;;;;;9.69;84.50;100258.12;1715531;83;27646;-54
2022/11/09 08:35:19;;;;;;;45.00;23.98;;;;;;;9.88;84.93;100257.41;1717252;83;25673;-55
2022/11/09 08:37:47;;;;;;;41.92;24.05;;;;;;;10.07;84.13;100262.64;1717348;83;25440;-53
2022/11/09 08:40:17;;;;;;;40.90;23.85;;;;;;;10.13;82.81;100259.29;1717405;83;25542;-55
2022/11/09 08:42:43;;;;;;;;;;;;;;;10.26;82.86;100253.56;1719871;83;25382;-54
2022/11/09 08:45:12;;;;;;;42.23;23.40;;;;;;;10.45;82.80;100256.09;1672831;85;27694;-56
2022/11/09 08:47:38;;;;;;;42.15;22.98;;;;;;;10.73;82.87;100262.72;1717237;83;25810;-55
2022/11/09 08:50:06;;;;;;;40.03;23.73;;;;;;;11.06;82.71;100265.09;1717302;83;25460;-52
2022/11/09 08:52:33;;;;;;;38.50;23.42;;;;;;;11.32;81.62;100259.22;1717290;83;26186;-54
2022/11/09 08:55:00;;;;;;;40.60;22.75;;;;;;;11.52;80.68;100256.45;1717346;83;25420;-56
2022/11/09 08:57:27;;;;;;;37.45;22.60;;;;;;;11.79;80.58;100249.16;1717322;83;27480;-55
2022/11/09 08:59:53;;;;;;;38.65;22.85;;;;;;;12.08;79.13;100253.97;1717229;83;25793;-55
2022/11/09 09:02:20;;;;;;;36.63;23.02;;;;;;;12.28;79.71;100255.23;1717311;83;25405;-56
2022/11/09 09:04:46;;;;;;;35.45;22.77;;;;;;;12.48;77.72;100252.95;1702546;84;25479;-56
2022/11/09 09:07:13;;;;;;;38.63;23.70;;;;;;;12.63;77.28;100270.11;1717372;83;25431;-56
2022/11/09 09:09:40;;;;;;;37.13;22.62;;;;;;;12.54;76.32;100265.24;1717316;83;28276;-54
2022/11/09 09:12:08;;;;;;;35.70;21.68;;;;;;;12.45;75.75;100258.48;1717243;83;25460;-57
2022/11/09 09:14:35;;;;;;;37.88;23.12;;;;;;;12.43;74.97;100258.55;1717405;83;25436;-55
2022/11/09 09:17:01;;;;;;;41.30;23.20;;;;;;;12.37;75.49;100255.79;1717285;83;25463;-57
2022/11/09 09:19:28;;;;;;;37.00;23.05;;;;;;;12.29;75.02;100256.84;1717351;83;25460;-55
2022/11/09 09:21:54;;;;;;;37.60;22.40;;;;;;;12.39;75.59;100252.19;1717329;83;27505;-54
2022/11/09 09:24:20;;;;;;;36.42;21.77;;;;;;;12.63;74.88;100268.75;1717202;83;25547;-57
2022/11/09 09:26:47;;;;;;;40.35;22.62;;;;;;;12.86;74.95;100259.02;1717313;83;25481;-57
2022/11/09 09:29:13;;;;;;;37.08;22.22;;;;;;;13.15;75.95;100254.17;1717284;83;25523;-58
2022/11/09 09:31:40;;;;;;;37.75;23.00;;;;;;;13.66;76.33;100252.09;1717307;83;25409;-56
2022/11/09 09:34:07;;;;;;;36.65;22.85;;;;;;;14.03;73.89;100252.27;1717232;83;27478;-54
2022/11/09 09:36:34;;;;;;;34.43;21.75;;;;;;;14.15;72.92;100261.29;1717197;83;25614;-58
2022/11/09 09:39:01;;;;;;;34.55;21.68;;;;;;;14.46;73.49;100260.03;1717312;83;25470;-60
2022/11/09 09:41:53;;;;;;;32.88;22.17;;;;;;;14.57;71.37;100269.38;1717266;83;25560;-58
2022/11/09 09:44:43;;;;;;;34.50;22.20;;;;;;;14.54;70.26;100287.73;1716359;83;25511;-57
2022/11/09 09:47:18;;;;;;;39.13;23.32;;;;;;;14.38;69.99;100269.86;1717301;83;27473;-57
2022/11/09 09:50:00;;;;;;;34.58;22.58;;;;;;;14.38;69.44;100276.66;1717073;83;25470;-55
2022/11/09 09:53:04;;;;;;;36.85;22.50;;;;;;;14.28;69.93;100269.49;1717283;83;25418;-59
2022/11/09 09:55:40;;;;;;;36.25;22.87;;;;;;;14.20;69.38;100261.08;1717280;83;26065;-56
2022/11/09 09:58:26;;;;;;;34.48;21.45;;;;;;;14.29;69.74;100256.92;1717374;83;25480;-58
2022/11/09 10:00:58;;;;;;;38.28;23.40;;;;;;;14.37;70.21;100260.13;1717365;83;27532;-57
2022/11/09 10:03:24;;;;;;;35.43;22.58;;;;;;;14.54;70.40;100261.88;1716064;83;25403;-57
2022/11/09 10:05:59;;;;;;;33.78;21.85;;;;;;;14.94;70.07;100269.45;1717335;83;25457;-55
2022/11/09 10:08:46;;;;;;;37.33;22.75;;;;;;;15.16;68.48;100276.97;1717050;83;25584;-57
2022/11/09 10:11:44;;;;;;;35.55;22.15;;;;;;;14.98;66.87;100280.46;1687817;84;25703;-58
2022/11/09 10:14:30;;;;;;;35.68;23.07;;;;;;;14.62;66.80;100270.31;1658628;86;27573;-56
2022/11/09 10:17:24;;;;;;;34.00;22.50;;;;;;;14.28;66.59;100268.13;1668186;86;25701;-57
2022/11/09 10:20:08;;;;;;;37.58;23.00;;;;;;;13.95;67.50;100258.02;1668263;86;25538;-56
2022/11/09 10:22:52;;;;;;;35.75;22.00;;;;;;;13.65;67.54;100252.63;1667618;86;25538;-56
2022/11/09 10:25:25;;;;;;;37.93;23.18;;;;;;;13.34;68.22;100247.56;1666804;86;25450;-55
2022/11/09 10:27:55;;;;;;;36.58;22.75;;;;;;;13.13;68.73;100250.18;1668306;86;27479;-57
2022/11/09 10:30:24;;;;;;;41.70;22.87;;;;;;;12.95;69.19;100243.48;1668138;86;25566;-54
2022/11/09 10:33:13;;;;;;;37.50;21.35;;;;;;;12.84;69.76;100258.55;1668187;86;25523;-57
2022/11/09 10:36:03;;;;;;;37.40;22.52;;;;;;;12.71;70.11;100257.05;1668160;86;25493;-58
2022/11/09 10:38:39;;;;;;;;;;;;;;;12.60;70.39;100255.01;1670659;86;25485;-57
2022/11/09 10:41:35;;;;;;;39.45;23.50;;;;;;;12.43;70.54;100256.66;1667193;86;27665;-56
2022/11/09 10:44:01;;;;;;;39.15;23.60;;;;;;;12.27;70.96;100258.27;1668075;86;25730;-56
2022/11/09 10:46:27;;;;;;;34.33;23.02;;;;;;;12.08;71.36;100249.12;1668181;86;25547;-55
2022/11/09 10:48:54;;;;;;;42.40;22.82;;;;;;;11.98;71.96;100255.65;1668156;86;26370;-57
2022/11/09 10:51:38;;;;;;;38.02;24.07;;;;;;;11.95;72.46;100257.09;1702438;83;25415;-53
2022/11/09 10:54:21;;;;;;;37.93;21.90;;;;;;;11.92;72.87;100252.88;1725250;83;27474;-57
2022/11/09 10:57:17;;;;;;;39.38;23.07;;;;;;;11.89;73.04;100246.13;1725165;83;25194;-53
2022/11/09 10:59:50;;;;;;;40.88;23.25;;;;;;;11.86;73.33;100240.56;1725239;83;25443;-56
2022/11/09 11:02:30;;;;;;;38.23;23.83;;;;;;;11.88;73.77;100246.45;1725218;83;26060;-53
2022/11/09 11:05:08;;;;;;;42.45;24.60;;;;;;;11.92;73.98;100243.39;1723832;83;25448;-52
2022/11/09 11:07:35;;;;;;;34.90;23.38;;;;;;;11.93;73.95;100247.11;1725192;83;27541;-58
2022/11/09 11:10:20;;;;;;;40.08;22.75;;;;;;;11.99;74.25;100242.34;1702372;83;25470;-51
2022/11/09 11:13:00;;;;;;;36.33;23.10;;;;;;;12.07;74.62;100237.48;1725188;83;25439;-58
2022/11/09 11:15:39;;;;;;;38.33;23.52;;;;;;;12.16;74.70;100232.05;1713314;83;26119;-60
2022/11/09 11:18:19;;;;;;;38.15;21.97;;;;;;;12.26;74.65;100226.83;1725390;83;25406;-58
2022/11/09 11:20:46;;;;;;;34.00;22.48;;;;;;;12.26;74.17;100230.90;1724965;83;27550;-57
2022/11/09 11:23:22;;;;;;;35.80;22.07;;;;;;;12.26;73.93;100247.17;1725651;83;25453;-53
2022/11/09 11:26:12;;;;;;;37.58;22.02;;;;;;;12.22;73.96;100238.88;1725764;82;25488;-54
2022/11/09 11:28:48;;;;;;;;;;;;;;;12.22;74.03;100222.61;1712609;83;25556;-51
2022/11/09 11:31:19;;;;;;;36.80;21.93;;;;;;;12.25;73.91;100227.40;1724426;83;25495;-51
2022/11/09 11:33:46;;;;;;;39.55;23.07;;;;;;;12.26;74.28;100222.23;1725132;83;27475;-52